createdAt,value
2023-05-19T00:00:21.505Z,832.82
2023-05-19T00:01:21.488Z,828.20
2023-05-19T00:02:21.525Z,825.15
2023-05-19T00:03:21.492Z,823.13
2023-05-19T00:04:21.449Z,820.12
2023-05-19T00:05:21.431Z,802.03
2023-05-19T00:06:21.646Z,792.58
2023-05-19T00:07:21.378Z,780.16
2023-05-19T00:08:21.393Z,770.33
2023-05-19T00:09:21.371Z,764.20
2023-05-19T00:10:21.349Z,753.92
2023-05-19T00:11:21.380Z,741.53
2023-05-19T00:12:21.386Z,727.87
2023-05-19T00:13:21.347Z,717.00
2023-05-19T00:14:21.310Z,702.75
2023-05-19T00:15:21.283Z,695.47
2023-05-19T00:16:21.339Z,687.64
2023-05-19T00:17:21.283Z,675.20
2023-05-19T00:18:21.287Z,674.53
2023-05-19T00:19:21.278Z,665.18
2023-05-19T00:20:21.217Z,656.72
2023-05-19T00:21:21.225Z,647.86
2023-05-19T00:22:21.205Z,645.99
2023-05-19T00:23:21.190Z,638.62
2023-05-19T00:24:21.193Z,638.01
2023-05-19T00:25:21.157Z,631.42
2023-05-19T00:26:21.144Z,626.71
2023-05-19T00:27:21.142Z,617.49
2023-05-19T00:28:21.124Z,605.25
2023-05-19T00:29:21.133Z,609.09
2023-05-19T00:30:21.099Z,603.62
2023-05-19T00:31:21.099Z,597.18
2023-05-19T00:32:21.080Z,592.44
2023-05-19T00:33:21.063Z,594.54
2023-05-19T00:34:21.056Z,594.01
2023-05-19T00:35:21.084Z,594.01
2023-05-19T00:36:21.022Z,591.40
2023-05-19T00:37:21.055Z,586.24
2023-05-19T00:38:21.006Z,579.66
2023-05-19T00:39:20.966Z,575.69
2023-05-19T00:40:20.964Z,580.66
2023-05-19T00:41:20.999Z,574.21
2023-05-19T00:42:21.086Z,567.90
2023-05-19T00:43:20.969Z,564.56
2023-05-19T00:44:20.917Z,554.77
2023-05-19T00:45:20.916Z,552.49
2023-05-19T00:46:20.902Z,544.43
2023-05-19T00:47:21.031Z,545.32
2023-05-19T00:48:20.861Z,540.92
2023-05-19T00:49:20.849Z,542.67
2023-05-19T00:50:20.829Z,538.32
2023-05-19T00:51:20.851Z,539.19
2023-05-19T00:52:21.110Z,541.36
2023-05-19T00:53:20.800Z,537.89
2023-05-19T00:54:20.784Z,538.32
2023-05-19T00:55:20.768Z,541.36
2023-05-19T00:56:20.758Z,540.49
2023-05-19T00:57:20.996Z,536.60
2023-05-19T00:58:20.734Z,532.35
2023-05-19T00:59:20.719Z,539.19
2023-05-19T01:00:20.714Z,542.67
2023-05-19T01:01:20.722Z,547.98
2023-05-19T01:02:21.066Z,550.68
2023-05-19T01:03:20.927Z,562.67
2023-05-19T01:04:20.655Z,563.61
2023-05-19T01:05:20.739Z,557.53
2023-05-19T01:06:20.665Z,562.20
2023-05-19T01:07:20.632Z,552.49
2023-05-19T01:08:20.629Z,555.69
2023-05-19T01:09:20.597Z,549.33
2023-05-19T01:10:20.628Z,544.87
2023-05-19T01:11:20.587Z,538.32
2023-05-19T01:12:20.564Z,534.04
2023-05-19T01:13:20.538Z,527.34
2023-05-19T01:14:20.555Z,526.51
2023-05-19T01:15:20.532Z,531.51
2023-05-19T01:16:20.558Z,532.35
2023-05-19T01:17:20.487Z,532.77
2023-05-19T01:18:20.492Z,535.75
2023-05-19T01:19:20.609Z,538.32
2023-05-19T01:20:20.496Z,544.43
2023-05-19T01:21:20.440Z,548.88
2023-05-19T01:22:20.419Z,542.67
2023-05-19T01:23:20.425Z,542.23
2023-05-19T01:24:20.413Z,537.89
2023-05-19T01:25:20.413Z,533.20
2023-05-19T01:26:20.385Z,533.62
2023-05-19T01:27:20.384Z,525.28
2023-05-19T01:28:20.347Z,524.05
2023-05-19T01:29:20.339Z,526.92
2023-05-19T01:30:20.330Z,524.86
2023-05-19T01:31:20.328Z,529.00
2023-05-19T01:32:20.349Z,534.04
2023-05-19T01:33:20.288Z,533.20
2023-05-19T01:34:20.294Z,532.35
2023-05-19T01:35:20.264Z,529.41
2023-05-19T01:36:20.264Z,530.25
2023-05-19T01:37:20.231Z,529.00
2023-05-19T01:38:20.225Z,529.41
2023-05-19T01:39:20.224Z,532.77
2023-05-19T01:40:20.195Z,526.92
2023-05-19T01:41:20.192Z,522.42
2023-05-19T01:42:20.205Z,527.75
2023-05-19T01:43:20.161Z,531.09
2023-05-19T01:44:20.145Z,539.19
2023-05-19T01:45:20.150Z,544.43
2023-05-19T01:46:20.194Z,544.43
2023-05-19T01:47:20.112Z,551.13
2023-05-19T01:48:20.129Z,549.33
2023-05-19T01:49:20.078Z,552.94
2023-05-19T01:50:20.071Z,552.04
2023-05-19T01:51:20.069Z,552.94
2023-05-19T01:52:20.051Z,548.43
2023-05-19T01:53:20.034Z,540.05
2023-05-19T01:54:20.039Z,537.89
2023-05-19T01:55:20.008Z,540.49
2023-05-19T01:56:20.021Z,547.98
2023-05-19T01:57:19.987Z,547.09
2023-05-19T01:58:19.977Z,544.43
2023-05-19T01:59:19.963Z,537.03
2023-05-19T02:00:21.309Z,544.43
2023-05-19T02:01:19.959Z,541.36
2023-05-19T02:02:19.910Z,542.23
2023-05-19T02:03:19.936Z,536.60
2023-05-19T02:04:19.922Z,533.20
2023-05-19T02:05:19.921Z,536.60
2023-05-19T02:06:19.902Z,531.09
2023-05-19T02:07:19.856Z,526.10
2023-05-19T02:08:19.852Z,522.01
2023-05-19T02:09:19.821Z,527.75
2023-05-19T02:10:19.821Z,534.04
2023-05-19T02:11:19.827Z,532.77
2023-05-19T02:12:19.784Z,534.47
2023-05-19T02:13:19.792Z,549.78
2023-05-19T02:14:19.765Z,570.31
2023-05-19T02:15:19.764Z,595.59
2023-05-19T02:16:19.857Z,612.98
2023-05-19T02:17:19.760Z,616.36
2023-05-19T02:18:19.737Z,625.54
2023-05-19T02:19:19.809Z,624.38
2023-05-19T02:20:19.691Z,620.91
2023-05-19T02:21:19.681Z,616.36
2023-05-19T02:22:19.665Z,607.44
2023-05-19T02:23:19.671Z,605.80
2023-05-19T02:24:19.654Z,611.31
2023-05-19T02:25:19.612Z,614.10
2023-05-19T02:26:19.629Z,615.79
2023-05-19T02:27:19.591Z,608.54
2023-05-19T02:28:19.570Z,598.78
2023-05-19T02:29:19.669Z,596.65
2023-05-19T02:30:19.580Z,598.78
2023-05-19T02:31:19.652Z,602.54
2023-05-19T02:32:19.538Z,606.34
2023-05-19T02:33:19.512Z,611.86
2023-05-19T02:34:19.511Z,602.54
2023-05-19T02:35:19.507Z,597.18
2023-05-19T02:36:19.469Z,595.59
2023-05-19T02:37:19.457Z,598.78
2023-05-19T02:38:19.462Z,606.89
2023-05-19T02:39:19.462Z,608.54
2023-05-19T02:40:19.446Z,608.54
2023-05-19T02:41:19.406Z,606.34
2023-05-19T02:42:19.396Z,616.36
2023-05-19T02:43:19.398Z,626.12
2023-05-19T02:44:19.370Z,633.20
2023-05-19T02:45:19.371Z,641.06
2023-05-19T02:46:19.385Z,651.00
2023-05-19T02:47:19.356Z,651.00
2023-05-19T02:48:19.317Z,641.06
2023-05-19T02:49:19.311Z,633.20
2023-05-19T02:50:19.298Z,629.05
2023-05-19T02:51:19.286Z,626.71
2023-05-19T02:52:19.307Z,619.20
2023-05-19T02:53:19.258Z,616.36
2023-05-19T02:54:19.247Z,612.42
2023-05-19T02:55:19.221Z,623.22
2023-05-19T02:56:19.306Z,629.05
2023-05-19T02:57:19.218Z,630.82
2023-05-19T02:58:19.186Z,624.96
2023-05-19T02:59:19.181Z,637.41
2023-05-19T03:00:19.187Z,647.23
2023-05-19T03:01:19.171Z,646.61
2023-05-19T03:02:19.156Z,649.11
2023-05-19T03:03:19.184Z,644.75
2023-05-19T03:04:19.127Z,643.51
2023-05-19T03:05:19.188Z,636.20
2023-05-19T03:06:19.100Z,636.20
2023-05-19T03:07:19.092Z,636.80
2023-05-19T03:08:19.049Z,636.80
2023-05-19T03:09:19.059Z,633.20
2023-05-19T03:10:19.100Z,630.82
2023-05-19T03:11:19.043Z,632.61
2023-05-19T03:12:19.014Z,625.54
2023-05-19T03:13:19.018Z,624.96
2023-05-19T03:14:18.990Z,618.06
2023-05-19T03:15:18.966Z,615.79
2023-05-19T03:16:19.032Z,596.65
2023-05-19T03:17:19.010Z,594.54
2023-05-19T03:18:18.992Z,583.18
2023-05-19T03:19:19.002Z,573.23
2023-05-19T03:20:18.925Z,565.51
2023-05-19T03:21:18.899Z,562.67
2023-05-19T03:22:18.885Z,556.15
2023-05-19T03:23:18.877Z,554.77
2023-05-19T03:24:18.874Z,554.77
2023-05-19T03:25:18.846Z,549.33
2023-05-19T03:26:18.834Z,550.23
2023-05-19T03:27:18.853Z,548.88
2023-05-19T03:28:18.797Z,553.86
2023-05-19T03:29:18.791Z,546.20
2023-05-19T03:30:18.816Z,530.25
2023-05-19T03:31:18.875Z,521.60
2023-05-19T03:32:18.766Z,516.79
2023-05-19T03:33:18.856Z,502.86
2023-05-19T03:34:18.755Z,502.86
2023-05-19T03:35:18.741Z,505.13
2023-05-19T03:36:18.728Z,502.86
2023-05-19T03:37:18.686Z,502.49
2023-05-19T03:38:18.693Z,500.62
2023-05-19T03:39:18.675Z,506.66
2023-05-19T03:40:18.658Z,515.60
2023-05-19T03:41:18.633Z,517.59
2023-05-19T03:42:18.648Z,522.42
2023-05-19T03:43:18.606Z,524.05
2023-05-19T03:44:18.609Z,519.59
2023-05-19T03:45:18.584Z,517.19
2023-05-19T03:46:18.649Z,512.06
2023-05-19T03:47:18.576Z,509.35
2023-05-19T03:48:21.102Z,505.89
2023-05-19T03:49:18.529Z,507.81
2023-05-19T03:50:18.516Z,509.73
2023-05-19T03:51:18.501Z,514.02
2023-05-19T03:52:18.515Z,515.21
2023-05-19T03:53:18.518Z,508.19
2023-05-19T03:54:18.469Z,507.42
2023-05-19T03:55:18.449Z,506.66
2023-05-19T03:56:18.454Z,506.27
2023-05-19T03:57:18.436Z,499.87
2023-05-19T03:58:18.435Z,491.10
2023-05-19T03:59:18.400Z,482.29
2023-05-19T04:00:18.410Z,478.85
2023-05-19T04:01:18.374Z,478.85
2023-05-19T04:02:18.399Z,476.81
2023-05-19T04:03:18.550Z,472.45
2023-05-19T04:04:18.386Z,467.85
2023-05-19T04:05:18.345Z,467.20
2023-05-19T04:06:18.317Z,474.45
2023-05-19T04:07:18.302Z,471.79
2023-05-19T04:08:18.306Z,469.48
2023-05-19T04:09:18.280Z,463.65
2023-05-19T04:10:18.301Z,468.50
2023-05-19T04:11:18.241Z,471.79
2023-05-19T04:12:18.264Z,471.46
2023-05-19T04:13:18.225Z,474.12
2023-05-19T04:14:18.237Z,468.83
2023-05-19T04:15:18.220Z,470.47
2023-05-19T04:16:18.266Z,470.47
2023-05-19T04:17:18.185Z,477.49
2023-05-19T04:18:18.168Z,474.45
2023-05-19T04:19:18.180Z,481.25
2023-05-19T04:20:18.136Z,478.17
2023-05-19T04:21:18.139Z,483.68
2023-05-19T04:22:18.144Z,478.17
2023-05-19T04:23:18.099Z,477.83
2023-05-19T04:24:18.086Z,485.07
2023-05-19T04:25:18.071Z,493.99
2023-05-19T04:26:18.069Z,501.74
2023-05-19T04:27:18.075Z,499.87
2023-05-19T04:28:18.093Z,496.91
2023-05-19T04:29:18.387Z,497.65
2023-05-19T04:30:18.771Z,499.50
2023-05-19T04:31:18.037Z,497.65
2023-05-19T04:32:18.189Z,494.72
2023-05-19T04:33:17.973Z,499.87
2023-05-19T04:34:17.960Z,495.45
2023-05-19T04:35:17.956Z,491.82
2023-05-19T04:36:17.929Z,490.74
2023-05-19T04:37:17.927Z,488.25
2023-05-19T04:38:17.922Z,487.54
2023-05-19T04:39:17.907Z,490.39
2023-05-19T04:40:17.873Z,496.91
2023-05-19T04:41:17.877Z,496.91
2023-05-19T04:42:17.915Z,489.31
2023-05-19T04:43:17.837Z,491.10
2023-05-19T04:44:17.853Z,491.46
2023-05-19T04:45:17.821Z,489.67
2023-05-19T04:46:17.851Z,498.02
2023-05-19T04:47:17.797Z,507.04
2023-05-19T04:48:17.776Z,508.19
2023-05-19T04:49:17.775Z,500.24
2023-05-19T04:50:17.777Z,502.86
2023-05-19T04:51:17.791Z,486.83
2023-05-19T04:52:17.761Z,491.82
2023-05-19T04:53:17.715Z,494.72
2023-05-19T04:54:17.704Z,506.66
2023-05-19T04:55:17.714Z,510.89
2023-05-19T04:56:17.694Z,516.79
2023-05-19T04:57:17.655Z,522.42
2023-05-19T04:58:17.656Z,531.09
2023-05-19T04:59:17.673Z,536.60
2023-05-19T05:00:17.674Z,545.32
2023-05-19T05:01:17.684Z,547.09
2023-05-19T05:02:17.657Z,545.32
2023-05-19T05:03:17.752Z,552.49
2023-05-19T05:04:17.563Z,561.73
2023-05-19T05:05:17.565Z,570.31
2023-05-19T05:06:17.578Z,576.68
2023-05-19T05:07:17.553Z,569.83
2023-05-19T05:08:17.561Z,577.17
2023-05-19T05:09:17.517Z,579.16
2023-05-19T05:10:17.487Z,571.28
2023-05-19T05:11:17.482Z,567.42
2023-05-19T05:12:17.524Z,572.26
2023-05-19T05:13:17.484Z,573.72
2023-05-19T05:14:17.432Z,585.22
2023-05-19T05:15:17.421Z,589.32
2023-05-19T05:16:17.431Z,591.40
2023-05-19T05:17:17.395Z,594.01
2023-05-19T05:18:17.402Z,579.66
2023-05-19T05:19:17.426Z,564.56
2023-05-19T05:20:17.359Z,562.67
2023-05-19T05:21:17.359Z,549.78
2023-05-19T05:22:17.328Z,550.68
2023-05-19T05:23:17.321Z,547.98
2023-05-19T05:24:17.335Z,550.23
2023-05-19T05:25:17.286Z,557.07
2023-05-19T05:26:17.276Z,561.73
2023-05-19T05:27:17.271Z,560.32
2023-05-19T05:28:17.252Z,561.73
2023-05-19T05:29:17.261Z,565.04
2023-05-19T05:30:17.237Z,569.34
2023-05-19T05:31:17.224Z,574.21
2023-05-19T05:32:17.260Z,583.18
2023-05-19T05:33:17.253Z,589.32
2023-05-19T05:34:17.201Z,603.62
2023-05-19T05:35:17.166Z,603.08
2023-05-19T05:36:17.154Z,599.31
2023-05-19T05:37:17.156Z,590.88
2023-05-19T05:38:17.131Z,597.18
2023-05-19T05:39:17.137Z,620.91
2023-05-19T05:40:17.107Z,633.20
2023-05-19T05:41:17.092Z,636.20
2023-05-19T05:42:17.089Z,620.34
2023-05-19T05:43:17.069Z,620.91
2023-05-19T05:44:17.055Z,620.91
2023-05-19T05:45:17.047Z,621.49
2023-05-19T05:46:17.058Z,627.29
2023-05-19T05:47:17.019Z,630.23
2023-05-19T05:48:17.042Z,636.20
2023-05-19T05:49:16.990Z,639.23
2023-05-19T05:50:16.974Z,634.40
2023-05-19T05:51:16.988Z,645.99
2023-05-19T05:52:16.959Z,641.67
2023-05-19T05:53:16.937Z,647.86
2023-05-19T05:54:16.923Z,669.15
2023-05-19T05:55:16.907Z,667.82
2023-05-19T05:56:16.895Z,645.37
2023-05-19T05:57:16.939Z,457.02
2023-05-19T05:58:16.892Z,516.79
2023-05-19T05:59:16.858Z,547.98
2023-05-19T06:00:16.845Z,569.83
2023-05-19T06:01:16.865Z,582.17
2023-05-19T06:02:16.966Z,601.46
2023-05-19T06:03:16.985Z,610.75
2023-05-19T06:04:16.815Z,626.71
2023-05-19T06:05:16.932Z,636.20
2023-05-19T06:06:16.764Z,637.41
2023-05-19T06:07:16.777Z,640.45
2023-05-19T06:08:16.744Z,644.13
2023-05-19T06:09:16.770Z,640.45
2023-05-19T06:10:16.759Z,653.53
2023-05-19T06:11:16.745Z,659.95
2023-05-19T06:12:16.694Z,650.37
2023-05-19T06:13:16.700Z,648.48
2023-05-19T06:14:16.677Z,654.16
2023-05-19T06:15:16.674Z,682.75
2023-05-19T06:16:16.732Z,691.89
2023-05-19T06:17:16.658Z,702.75
2023-05-19T06:18:16.627Z,707.19
2023-05-19T06:19:16.673Z,720.07
2023-05-19T06:20:16.617Z,726.30
2023-05-19T06:21:16.617Z,707.19
2023-05-19T06:22:16.616Z,714.71
2023-05-19T06:23:16.573Z,735.04
2023-05-19T06:24:16.566Z,758.60
2023-05-19T06:25:16.604Z,759.03
2023-05-19T06:26:16.503Z,773.88
2023-05-19T06:27:16.588Z,774.77
2023-05-19T06:28:16.501Z,779.26
2023-05-19T06:29:16.520Z,772.99
2023-05-19T06:30:16.530Z,760.32
2023-05-19T06:31:16.556Z,773.88
2023-05-19T06:32:16.448Z,793.98
2023-05-19T06:33:16.443Z,793.98
2023-05-19T06:34:16.417Z,797.75
2023-05-19T06:35:16.401Z,796.80
2023-05-19T06:36:16.422Z,793.98
2023-05-19T06:37:16.377Z,782.43
2023-05-19T06:38:16.379Z,792.11
2023-05-19T06:39:16.392Z,811.71
2023-05-19T06:40:16.342Z,825.15
2023-05-19T06:41:16.359Z,876.22
2023-05-19T06:42:16.303Z,887.79
2023-05-19T06:43:16.337Z,886.62
2023-05-19T06:44:16.312Z,891.91
2023-05-19T06:45:16.303Z,902.08
2023-05-19T06:46:16.289Z,925.67
2023-05-19T06:47:16.448Z,937.93
2023-05-19T06:48:16.427Z,947.85
2023-05-19T06:49:16.254Z,967.62
2023-05-19T06:50:16.242Z,977.47
2023-05-19T06:51:16.226Z,970.42
2023-05-19T06:52:16.197Z,957.29
2023-05-19T06:53:16.169Z,947.18
2023-05-19T06:54:16.554Z,929.51
2023-05-19T06:55:16.140Z,964.85
2023-05-19T06:56:16.168Z,986.07
2023-05-19T06:57:16.119Z,984.63
2023-05-19T06:58:16.113Z,974.64
2023-05-19T06:59:16.097Z,983.19
2023-05-19T07:00:18.178Z,969.02
2023-05-19T07:01:16.157Z,959.34
2023-05-19T07:02:16.118Z,970.42
2023-05-19T07:03:16.118Z,953.90
2023-05-19T07:04:16.083Z,955.26
2023-05-19T07:05:16.017Z,934.03
2023-05-19T07:06:16.013Z,937.93
2023-05-19T07:07:16.001Z,947.18
2023-05-19T07:08:15.985Z,957.98
2023-05-19T07:09:15.977Z,956.61
2023-05-19T07:10:16.059Z,950.53
2023-05-19T07:11:15.929Z,945.85
2023-05-19T07:12:15.927Z,956.61
2023-05-19T07:13:15.905Z,991.16
2023-05-19T07:14:16.157Z,1012.80
2023-05-19T07:15:15.900Z,1025.93
2023-05-19T07:16:15.894Z,999.26
2023-05-19T07:17:15.874Z,1019.71
2023-05-19T07:18:15.856Z,1018.94
2023-05-19T07:19:15.878Z,1023.59
2023-05-19T07:20:15.837Z,1037.81
2023-05-19T07:21:15.815Z,1061.56
2023-05-19T07:22:15.796Z,1077.72
2023-05-19T07:23:17.226Z,1090.83
2023-05-19T07:24:15.764Z,1117.11
2023-05-19T07:25:15.818Z,1144.68
2023-05-19T07:26:15.759Z,1178.79
2023-05-19T07:27:15.718Z,1211.71
2023-05-19T07:28:15.717Z,1207.36
2023-05-19T07:29:15.727Z,1252.33
2023-05-19T07:30:15.706Z,1303.29
2023-05-19T07:31:15.753Z,1321.22
2023-05-19T07:32:15.744Z,1326.43
2023-05-19T07:33:15.762Z,1310.92
2023-05-19T07:34:15.637Z,1354.48
2023-05-19T07:35:15.639Z,1411.33
2023-05-19T07:36:15.617Z,1432.37
2023-05-19T07:37:15.631Z,1507.85
2023-05-19T07:38:15.609Z,1530.15
2023-05-19T07:39:15.709Z,1533.64
2023-05-19T07:40:15.572Z,1521.49
2023-05-19T07:41:15.547Z,1559.42
2023-05-19T07:42:15.549Z,1547.76
2023-05-19T07:43:15.555Z,1509.54
2023-05-19T07:44:15.506Z,1507.85
2023-05-19T07:45:15.507Z,1538.90
2023-05-19T07:46:15.541Z,1545.98
2023-05-19T07:47:15.478Z,1634.26
2023-05-19T07:48:15.717Z,1683.35
2023-05-19T07:49:15.449Z,1672.89
2023-05-19T07:50:15.436Z,1649.29
2023-05-19T07:51:15.459Z,1672.89
2023-05-19T07:52:15.433Z,1660.49
2023-05-19T07:53:15.482Z,1640.24
2023-05-19T07:54:15.427Z,1700.38
2023-05-19T07:55:15.405Z,1733.25
2023-05-19T07:56:15.358Z,1709.02
2023-05-19T07:57:15.354Z,1768.57
2023-05-19T07:58:15.363Z,1674.97
2023-05-19T07:59:15.337Z,1665.63
2023-05-19T08:00:15.359Z,1614.65
2023-05-19T08:01:15.313Z,1518.92
2023-05-19T08:02:15.328Z,1492.79
2023-05-19T08:03:15.446Z,1463.55
2023-05-19T08:04:15.421Z,1420.27
2023-05-19T08:05:15.247Z,1376.66
2023-05-19T08:06:15.274Z,1335.65
2023-05-19T08:07:15.258Z,1343.66
2023-05-19T08:08:15.223Z,1327.74
2023-05-19T08:09:15.197Z,1321.22
2023-05-19T08:10:15.196Z,1318.63
2023-05-19T08:11:15.208Z,1302.03
2023-05-19T08:12:15.183Z,1288.31
2023-05-19T08:13:15.157Z,1265.29
2023-05-19T08:14:15.148Z,1305.82
2023-05-19T08:15:15.139Z,1326.43
2023-05-19T08:16:15.234Z,1366.87
2023-05-19T08:17:15.112Z,1392.34
2023-05-19T08:18:15.126Z,1418.78
2023-05-19T08:19:15.120Z,1454.05
2023-05-19T08:20:15.061Z,1486.19
2023-05-19T08:21:15.058Z,1540.66
2023-05-19T08:22:15.054Z,1515.49
2023-05-19T08:23:15.067Z,1507.85
2023-05-19T08:24:15.042Z,1565.77
2023-05-19T08:25:15.024Z,1578.64
2023-05-19T08:26:15.000Z,1535.39
2023-05-19T08:27:14.980Z,1566.69
2023-05-19T08:28:14.990Z,1509.54
2023-05-19T08:29:14.951Z,1507.00
2023-05-19T08:30:14.999Z,1515.49
2023-05-19T08:31:14.985Z,1509.54
2023-05-19T08:32:14.933Z,1537.14
2023-05-19T08:33:15.011Z,1574.94
2023-05-19T08:34:14.934Z,1529.28
2023-05-19T08:35:14.909Z,1497.77
2023-05-19T08:36:14.930Z,1471.55
2023-05-19T08:37:14.884Z,1526.67
2023-05-19T08:38:14.855Z,1724.36
2023-05-19T08:39:14.850Z,1850.07
2023-05-19T08:40:14.878Z,1998.51
2023-05-19T08:41:14.813Z,2113.12
2023-05-19T08:42:14.866Z,2194.13
2023-05-19T08:45:53.057Z,679.99
2023-05-19T08:46:41.905Z,1412.81
2023-05-19T08:47:41.867Z,1839.94
2023-05-19T08:48:41.842Z,2104.85
2023-05-19T08:49:41.826Z,2123.12
2023-05-19T08:50:41.810Z,2158.91
2023-05-19T08:51:41.817Z,2148.56
2023-05-19T08:52:41.796Z,2213.99
2023-05-19T08:53:41.831Z,2217.64
2023-05-19T08:54:41.790Z,2232.36
2023-05-19T08:55:41.767Z,2303.08
2023-05-19T08:56:41.749Z,2359.65
2023-05-19T08:57:41.775Z,2322.97
2023-05-19T08:58:41.733Z,2213.99
2023-05-19T08:59:41.716Z,2223.14
2023-05-19T09:00:41.724Z,2226.82
2023-05-19T09:01:41.756Z,2353.46
2023-05-19T09:02:50.579Z,2367.96
2023-05-19T09:03:42.567Z,2291.31
2023-05-19T09:04:41.684Z,2357.58
2023-05-19T09:05:41.781Z,2406.08
2023-05-19T09:06:41.634Z,2427.80
2023-05-19T09:07:41.633Z,2403.93
2023-05-19T09:08:41.679Z,2421.24
2023-05-19T09:09:41.595Z,2518.73
2023-05-19T09:10:41.614Z,2642.44
2023-05-19T09:11:41.659Z,3010.63
2023-05-19T09:12:41.613Z,3113.43
2023-05-19T09:13:41.633Z,2995.54
2023-05-19T09:14:41.552Z,2831.58
2023-05-19T09:15:41.612Z,2733.74
2023-05-19T09:16:41.587Z,2764.65
2023-05-19T09:17:41.556Z,2870.86
2023-05-19T09:18:41.532Z,2949.56
2023-05-19T09:19:41.513Z,3208.11
2023-05-19T09:20:41.495Z,3316.89
2023-05-19T09:21:41.492Z,3335.40
2023-05-19T09:22:41.476Z,3339.54
2023-05-19T09:23:41.487Z,3274.50
2023-05-19T09:24:41.458Z,3041.27
2023-05-19T09:25:41.459Z,2825.63
2023-05-19T09:26:41.424Z,2849.58
2023-05-19T09:27:41.421Z,2923.91
2023-05-19T09:28:41.414Z,2923.91
2023-05-19T09:29:41.389Z,3160.99
2023-05-19T09:30:41.432Z,3202.38
2023-05-19T09:31:41.482Z,3341.61
2023-05-19T09:32:41.421Z,3470.97
2023-05-19T09:33:44.344Z,3498.05
2023-05-19T09:34:41.370Z,3530.18
2023-05-19T09:35:41.336Z,3482.20
2023-05-19T09:36:41.342Z,3379.40
2023-05-19T09:37:41.375Z,3258.63
2023-05-19T09:38:41.367Z,3383.65
2023-05-19T09:39:41.310Z,3300.61
2023-05-19T09:40:41.291Z,3172.17
2023-05-19T09:41:41.279Z,3294.55
2023-05-19T09:42:41.293Z,3484.46
2023-05-19T09:43:41.258Z,3652.41
2023-05-19T09:44:41.263Z,3642.52
2023-05-19T09:45:41.290Z,3498.05
2023-05-19T09:46:41.271Z,3252.72
2023-05-19T09:47:41.376Z,2992.21
2023-05-19T09:48:41.223Z,2807.93
2023-05-19T09:49:41.200Z,2736.52
2023-05-19T09:50:41.189Z,2658.10
2023-05-19T09:51:41.233Z,2671.30
2023-05-19T09:52:41.168Z,2886.27
2023-05-19T09:53:41.152Z,3181.55
2023-05-19T09:54:41.185Z,3304.67
2023-05-19T09:55:41.142Z,3288.51
2023-05-19T09:56:41.122Z,3373.04
2023-05-19T09:57:41.124Z,3312.81
2023-05-19T09:58:41.116Z,3383.65
2023-05-19T09:59:41.110Z,3202.38
2023-05-19T10:00:41.132Z,2943.11
2023-05-19T10:01:41.212Z,2773.20
2023-05-19T10:02:41.150Z,2703.52
2023-05-19T10:03:41.067Z,2744.90
2023-05-19T10:04:41.075Z,2756.15
2023-05-19T10:05:41.025Z,2642.44
2023-05-19T10:06:41.047Z,2596.52
2023-05-19T10:07:41.032Z,2581.57
2023-05-19T10:08:40.988Z,2532.96
2023-05-19T10:09:40.988Z,2542.53
2023-05-19T10:10:40.995Z,2637.25
2023-05-19T10:11:40.980Z,2761.81
2023-05-19T10:12:40.965Z,2756.15
2023-05-19T10:13:40.946Z,2773.20
2023-05-19T10:14:40.936Z,2690.00
2023-05-19T10:15:53.719Z,2564.35
2023-05-19T10:16:41.016Z,2493.05
2023-05-19T10:17:40.910Z,2479.26
2023-05-19T10:18:40.921Z,2380.53
2023-05-19T10:19:40.875Z,2281.59
2023-05-19T10:20:40.859Z,2199.51
2023-05-19T10:21:40.839Z,2199.51
2023-05-19T10:22:40.830Z,2221.30
2023-05-19T10:23:40.843Z,2264.31
2023-05-19T10:24:40.814Z,2295.22
2023-05-19T10:25:40.823Z,2212.17
2023-05-19T10:26:40.794Z,2185.22
2023-05-19T10:27:40.779Z,2145.14
2023-05-19T10:28:40.783Z,2169.35
2023-05-19T10:29:40.756Z,2331.02
2023-05-19T10:30:40.754Z,2376.32
2023-05-19T10:31:40.738Z,2316.97
2023-05-19T10:32:40.751Z,2249.16
2023-05-19T10:33:40.693Z,2204.92
2023-05-19T10:34:40.708Z,2264.31
2023-05-19T10:35:40.686Z,2393.24
2023-05-19T10:36:40.674Z,2399.64
2023-05-19T10:37:40.689Z,2326.99
2023-05-19T10:38:40.633Z,2367.96
2023-05-19T10:39:40.666Z,2252.93
2023-05-19T10:40:40.623Z,2201.31
2023-05-19T10:41:40.591Z,2138.31
2023-05-19T10:42:40.599Z,2025.60
2023-05-19T10:43:40.601Z,1957.79
2023-05-19T10:44:40.569Z,2059.72
2023-05-19T10:45:40.638Z,2045.63
2023-05-19T10:46:40.622Z,1986.71
2023-05-19T10:47:40.598Z,1878.49
2023-05-19T10:48:40.538Z,1881.12
2023-05-19T10:49:40.621Z,1850.07
2023-05-19T10:50:40.589Z,1843.73
2023-05-19T10:51:40.539Z,1824.97
2023-05-19T10:52:40.506Z,1774.41
2023-05-19T10:53:40.515Z,1679.15
2023-05-19T10:54:40.461Z,1486.19
2023-05-19T10:55:40.438Z,1527.54
2023-05-19T10:56:40.435Z,1529.28
2023-05-19T10:57:40.415Z,1586.08
2023-05-19T10:58:40.387Z,1645.26
2023-05-19T10:59:41.044Z,1633.27
2023-05-19T11:00:40.375Z,1737.73
2023-05-19T11:01:40.388Z,1780.28
2023-05-19T11:02:40.418Z,1779.10
2023-05-19T11:03:42.905Z,1753.58
2023-05-19T11:04:40.313Z,1721.05
2023-05-19T11:05:40.318Z,1698.23
2023-05-19T11:06:40.310Z,1706.85
2023-05-19T11:07:40.305Z,1716.66
2023-05-19T11:08:40.287Z,1688.64
2023-05-19T11:09:40.842Z,1618.53
2023-05-19T11:10:40.259Z,1612.71
2023-05-19T11:11:40.245Z,1645.26
2023-05-19T11:12:40.208Z,1647.28
2023-05-19T11:13:40.251Z,1630.30
2023-05-19T11:14:40.193Z,1572.18
2023-05-19T11:15:40.206Z,1550.43
2023-05-19T11:16:40.930Z,1588.90
2023-05-19T11:17:40.185Z,1632.28
2023-05-19T11:18:40.177Z,1632.28
2023-05-19T11:19:40.176Z,1597.39
2023-05-19T11:20:40.185Z,1589.83
2023-05-19T11:21:40.109Z,1554.91
2023-05-19T11:22:40.107Z,1535.39
2023-05-19T11:23:40.158Z,1542.43
2023-05-19T11:24:40.106Z,1509.54
2023-05-19T11:25:40.335Z,1518.06
2023-05-19T11:26:40.031Z,1567.60
2023-05-19T11:27:40.266Z,1634.26
2023-05-19T11:28:40.008Z,1672.89
2023-05-19T11:29:40.017Z,1677.06
2023-05-19T11:30:40.013Z,1702.53
2023-05-19T11:31:40.048Z,1699.31
2023-05-19T11:32:40.037Z,1696.09
2023-05-19T11:33:39.945Z,1632.28
2023-05-19T11:34:39.938Z,1634.26
2023-05-19T11:35:40.184Z,1696.09
2023-05-19T11:36:39.964Z,1713.38
2023-05-19T11:37:39.906Z,1733.25
2023-05-19T11:38:39.886Z,1738.85
2023-05-19T11:39:39.898Z,1737.73
2023-05-19T11:40:39.862Z,1676.01
2023-05-19T11:41:40.574Z,1724.36
2023-05-19T11:42:39.922Z,1737.73
2023-05-19T11:43:39.960Z,1719.95
2023-05-19T11:44:39.902Z,1781.46
2023-05-19T11:45:39.802Z,1783.82
2023-05-19T11:46:39.877Z,1700.38
2023-05-19T11:47:59.674Z,1719.95
2023-05-19T11:48:39.852Z,1698.23
2023-05-19T11:49:39.750Z,1681.25
2023-05-19T11:50:39.745Z,1659.47
2023-05-19T11:51:39.742Z,1610.78
2023-05-19T11:52:39.718Z,1604.05
2023-05-19T11:53:40.453Z,1574.94
2023-05-19T11:54:39.699Z,1554.02
2023-05-19T11:55:39.664Z,1592.66
2023-05-19T11:56:39.739Z,1622.44
2023-05-19T11:57:40.499Z,1585.15
2023-05-19T11:58:39.685Z,1578.64
2023-05-19T11:59:39.650Z,1635.26
2023-05-19T12:00:40.181Z,1629.31
2023-05-19T12:01:39.620Z,1693.95
2023-05-19T12:02:39.652Z,1727.68
2023-05-19T12:03:39.783Z,1790.94
2023-05-19T12:04:39.580Z,1862.88
2023-05-19T12:05:42.788Z,1938.04
2023-05-19T12:06:39.669Z,1885.07
2023-05-19T12:07:39.765Z,1952.10
2023-05-19T12:08:39.513Z,1977.94
2023-05-19T12:09:39.554Z,1986.71
2023-05-19T12:10:39.522Z,2005.96
2023-05-19T12:11:39.508Z,1976.49
2023-05-19T12:12:39.475Z,1852.62
2023-05-19T12:13:39.459Z,1844.99
2023-05-19T12:14:39.522Z,1795.73
2023-05-19T12:15:39.744Z,1742.23
2023-05-19T12:16:39.471Z,1711.20
2023-05-19T12:17:39.475Z,1697.16
2023-05-19T12:18:40.071Z,1744.49
2023-05-19T12:19:39.375Z,1724.36
2023-05-19T12:20:39.436Z,1686.52
2023-05-19T12:21:39.377Z,1672.89